Time;durP1;ratioP1;P1;durP2;ratioP2;P2;SDS_P1;SDS_P2;PMS_P1;PMS_P2;Temp;Humidity;BMP_temperature;BMP_pressure;BME280_temperature;BME280_humidity;BME280_pressure;Samples;Min_cycle;Max_cycle;Signal;HPM_P1;HPM_P2
2022/02/22 00:02:16;;;;;;;6.85;2.17;;;;;;;24.52;12.99;96710.53;5083093;28;20385;-77
2022/02/22 00:04:44;;;;;;;5.10;1.50;;;;;;;24.23;13.17;96704.59;5072741;28;20107;-77
2022/02/22 00:07:13;;;;;;;4.40;1.35;;;;;;;24.04;13.58;96718.59;5073966;28;20067;-77
2022/02/22 00:09:39;;;;;;;2.92;0.95;;;;;;;24.31;13.19;96720.69;5071016;28;20039;-77
2022/02/22 00:12:06;;;;;;;7.25;2.55;;;;;;;24.18;13.49;96720.03;5076041;28;20036;-77
2022/02/22 00:14:33;;;;;;;9.52;3.28;;;;;;;24.29;13.49;96713.97;5053974;28;20044;-77
2022/02/22 00:16:59;;;;;;;6.22;2.38;;;;;;;24.17;13.41;96718.50;5086529;28;20074;-77
2022/02/22 00:19:28;;;;;;;5.13;2.20;;;;;;;24.13;13.43;96717.88;5072888;28;20040;-77
2022/02/22 00:21:56;;;;;;;4.13;1.40;;;;;;;24.32;13.44;96721.47;5076394;28;20485;-77
2022/02/22 00:24:22;;;;;;;1.52;0.80;;;;;;;24.41;13.30;96727.81;5072119;28;20032;-77
2022/02/22 00:26:48;;;;;;;3.28;0.80;;;;;;;24.35;13.31;96732.50;5071841;28;20035;-77
2022/02/22 00:29:14;;;;;;;3.97;1.48;;;;;;;24.45;13.24;96725.66;5078778;28;20109;-77
2022/02/22 00:31:41;;;;;;;5.88;2.15;;;;;;;24.65;13.18;96727.94;5079012;28;20028;-77
2022/02/22 00:34:07;;;;;;;6.80;2.25;;;;;;;24.56;13.20;96733.59;5073043;28;20090;-77
2022/02/22 00:36:34;;;;;;;3.67;1.75;;;;;;;24.05;13.91;96733.41;5071864;28;20040;-77
2022/02/22 00:39:02;;;;;;;2.25;0.70;;;;;;;24.01;13.97;96736.34;5078395;28;20036;-77
2022/02/22 00:41:28;;;;;;;2.10;0.80;;;;;;;22.99;15.04;96734.16;5072709;28;20024;-77
2022/02/22 00:43:54;;;;;;;2.25;0.80;;;;;;;23.12;14.76;96737.66;5069553;28;20048;-77
2022/02/22 00:46:20;;;;;;;4.03;1.38;;;;;;;23.60;14.47;96733.31;5070775;28;20041;-77
2022/02/22 00:48:46;;;;;;;2.22;1.05;;;;;;;24.18;14.09;96727.69;5074776;28;20093;-77
2022/02/22 00:51:12;;;;;;;2.78;0.70;;;;;;;23.98;14.10;96740.09;5080102;28;20055;-77
2022/02/22 00:53:39;;;;;;;2.35;0.90;;;;;;;23.81;14.44;96738.81;5069333;28;20453;-77
2022/02/22 00:56:05;;;;;;;1.90;0.90;;;;;;;23.75;14.70;96739.91;5074544;28;20036;-77
2022/02/22 00:58:31;;;;;;;2.13;1.05;;;;;;;24.26;14.18;96740.16;5070826;28;20501;-77
2022/02/22 01:00:57;;;;;;;1.48;0.90;;;;;;;24.72;13.74;96736.84;5069280;28;20450;-77
2022/02/22 01:03:23;;;;;;;2.72;0.63;;;;;;;24.90;13.59;96750.06;5073885;28;20789;-77
2022/02/22 01:05:49;;;;;;;1.10;0.70;;;;;;;24.09;14.32;96747.28;5071281;28;20028;-77
2022/02/22 01:08:17;;;;;;;1.63;0.77;;;;;;;24.50;13.96;96747.47;5079164;28;20084;-77
2022/02/22 01:10:43;;;;;;;3.30;0.50;;;;;;;24.41;14.08;96747.47;5074165;28;20032;-77
2022/02/22 01:13:09;;;;;;;1.25;0.60;;;;;;;24.87;13.78;96750.25;5077171;28;20032;-77
2022/02/22 01:15:36;;;;;;;1.08;0.60;;;;;;;24.65;14.15;96737.16;5070209;28;20123;-77
2022/02/22 01:18:02;;;;;;;2.38;0.73;;;;;;;24.71;13.99;96748.53;5074296;28;20561;-77
2022/02/22 01:20:28;;;;;;;1.98;0.60;;;;;;;24.39;14.48;96747.16;5071644;28;20389;-77
2022/02/22 01:22:56;;;;;;;3.50;0.43;;;;;;;24.40;14.40;96748.72;5077104;28;20036;-77
2022/02/22 01:25:26;;;;;;;1.15;0.40;;;;;;;24.53;14.45;96754.16;5070737;28;20099;-77
2022/02/22 01:27:53;;;;;;;4.00;0.50;;;;;;;24.70;14.25;96747.75;5074167;28;20024;-77
2022/02/22 01:30:19;;;;;;;2.10;0.80;;;;;;;24.08;14.79;96754.16;5075625;28;20231;-77
2022/02/22 01:32:45;;;;;;;0.60;0.40;;;;;;;24.47;14.52;96756.81;5070309;28;20037;-77
2022/02/22 01:35:13;;;;;;;2.75;0.63;;;;;;;24.77;14.23;96757.13;5069698;28;20020;-77
2022/02/22 01:37:39;;;;;;;2.63;0.50;;;;;;;24.55;14.24;96752.44;5066156;28;20052;-77
2022/02/22 01:40:07;;;;;;;1.17;0.50;;;;;;;24.87;14.10;96755.88;5075474;28;20030;-77
2022/02/22 01:42:33;;;;;;;1.73;0.30;;;;;;;24.41;14.26;96755.13;5070080;28;20398;-78
2022/02/22 01:44:59;;;;;;;1.70;0.60;;;;;;;24.47;14.54;96768.06;5079275;28;20394;-77
2022/02/22 01:47:25;;;;;;;2.65;0.63;;;;;;;24.44;14.73;96760.56;5072141;28;20507;-77
2022/02/22 01:49:51;;;;;;;0.82;0.40;;;;;;;25.01;14.17;96766.44;5070923;28;20359;-77
2022/02/22 01:52:17;;;;;;;1.98;0.50;;;;;;;25.01;14.11;96772.84;5072583;28;20024;-78
2022/02/22 01:54:45;;;;;;;1.70;0.70;;;;;;;25.06;14.14;96774.22;5070266;28;20025;-78
2022/02/22 01:57:13;;;;;;;1.02;0.40;;;;;;;25.28;14.20;96781.19;5070667;28;20040;-77
2022/02/22 01:59:41;;;;;;;4.22;0.80;;;;;;;25.58;14.02;96787.78;5068848;28;20378;-78
2022/02/22 02:02:07;;;;;;;1.63;0.50;;;;;;;25.45;14.14;96790.06;5071244;28;20136;-78
2022/02/22 02:04:33;;;;;;;1.67;0.50;;;;;;;25.29;14.00;96790.41;5075123;28;20032;-77
2022/02/22 02:07:00;;;;;;;1.10;0.75;;;;;;;25.48;13.94;96800.34;5071812;28;20448;-78
2022/02/22 02:09:26;;;;;;;5.43;0.95;;;;;;;25.82;13.87;96807.53;5064820;28;20033;-77
2022/02/22 02:11:58;;;;;;;1.40;0.70;;;;;;;25.34;13.91;96806.63;5074843;28;20042;-77
2022/02/22 02:14:25;;;;;;;2.55;0.70;;;;;;;25.18;14.07;96807.72;5056303;28;20132;-77
2022/02/22 02:16:53;;;;;;;1.50;0.88;;;;;;;25.48;14.00;96805.97;5053340;28;20127;-77
2022/02/22 02:19:19;;;;;;;1.63;0.70;;;;;;;25.18;14.47;96813.34;5073768;28;20047;-77
2022/02/22 02:21:47;;;;;;;7.05;0.75;;;;;;;25.48;14.17;96824.88;5070629;28;20496;-77
2022/02/22 02:24:15;;;;;;;2.42;0.73;;;;;;;25.88;13.88;96828.88;5078131;28;20037;-77
2022/02/22 02:26:43;;;;;;;1.35;0.40;;;;;;;25.85;13.84;96821.44;5071021;28;20047;-78
2022/02/22 02:29:10;;;;;;;0.82;0.40;;;;;;;25.90;13.91;96822.81;5071894;28;20028;-77
2022/02/22 02:31:37;;;;;;;2.30;0.70;;;;;;;25.89;14.09;96832.50;5067282;28;20033;-77
2022/02/22 02:34:05;;;;;;;0.90;0.60;;;;;;;25.85;13.85;96840.31;5072175;28;20029;-78
2022/02/22 02:36:33;;;;;;;1.13;0.50;;;;;;;25.77;14.00;96845.50;5075551;28;20066;-77
2022/02/22 02:38:59;;;;;;;2.53;0.30;;;;;;;25.71;14.17;96836.19;5074669;28;20115;-77
2022/02/22 02:41:25;;;;;;;2.20;0.65;;;;;;;24.69;14.95;96850.03;5070533;28;20044;-77
2022/02/22 02:43:52;;;;;;;1.60;0.40;;;;;;;24.93;15.01;96850.22;5069102;28;20051;-77
2022/02/22 02:46:18;;;;;;;1.02;0.50;;;;;;;25.14;14.64;96849.25;5067406;28;20509;-77
2022/02/22 02:48:44;;;;;;;1.40;0.43;;;;;;;25.41;14.61;96860.44;5070125;28;20036;-77
2022/02/22 02:51:10;;;;;;;3.05;0.32;;;;;;;25.03;15.14;96860.22;5069893;28;20032;-77
2022/02/22 02:53:36;;;;;;;1.25;0.60;;;;;;;24.63;15.14;96868.75;5069644;28;20064;-77
2022/02/22 02:56:03;;;;;;;2.35;0.52;;;;;;;24.12;15.70;96878.19;5067818;28;20037;-77
2022/02/22 02:58:29;;;;;;;1.75;0.55;;;;;;;24.15;15.68;96878.03;5076180;28;20032;-77
2022/02/22 03:00:55;;;;;;;0.65;0.40;;;;;;;24.31;15.82;96883.38;5056576;28;20393;-77
2022/02/22 03:03:21;;;;;;;1.80;0.70;;;;;;;24.63;15.53;96884.81;5073106;28;20036;-77
2022/02/22 03:05:47;;;;;;;1.13;0.60;;;;;;;24.23;15.83;96875.69;5053307;28;20524;-77
2022/02/22 03:08:13;;;;;;;0.40;0.25;;;;;;;23.32;16.80;96890.06;5078669;28;20044;-77
2022/02/22 03:10:39;;;;;;;3.35;0.70;;;;;;;22.81;17.31;96887.97;5071948;28;20025;-77
2022/02/22 03:13:05;;;;;;;1.75;0.55;;;;;;;22.66;17.49;96896.88;5076527;28;20040;-77
2022/02/22 03:15:31;;;;;;;2.95;0.70;;;;;;;22.37;17.94;96896.25;5076930;28;20505;-77
2022/02/22 03:17:57;;;;;;;1.40;0.60;;;;;;;21.77;18.68;96908.59;5071724;28;20118;-77
2022/02/22 03:20:23;;;;;;;1.13;0.50;;;;;;;21.55;19.10;96907.66;5076820;28;20029;-77
2022/02/22 03:22:53;;;;;;;1.15;0.60;;;;;;;19.70;21.19;96915.75;5055058;28;20028;-77
2022/02/22 03:25:19;;;;;;;1.67;0.73;;;;;;;18.71;22.85;96922.56;5072529;28;20021;-77
2022/02/22 03:27:45;;;;;;;1.88;0.60;;;;;;;18.80;22.89;96920.00;5075642;28;21542;-78
2022/02/22 03:30:12;;;;;;;2.20;0.50;;;;;;;20.34;21.32;96934.53;5071191;28;20524;-77
2022/02/22 03:32:38;;;;;;;2.28;0.60;;;;;;;20.45;20.92;96927.47;5076101;28;20043;-78
2022/02/22 03:35:05;;;;;;;3.63;0.57;;;;;;;20.07;21.25;96929.19;5073067;28;20029;-77
2022/02/22 03:37:31;;;;;;;1.65;0.68;;;;;;;19.76;21.77;96939.88;5072731;28;20511;-77
2022/02/22 03:39:57;;;;;;;1.75;0.70;;;;;;;20.05;21.80;96944.78;5072115;28;20043;-77
2022/02/22 03:42:23;;;;;;;2.60;0.80;;;;;;;21.06;20.60;96960.94;5067686;28;20382;-78
2022/02/22 03:44:49;;;;;;;0.80;0.47;;;;;;;19.23;23.02;96965.22;5072907;28;20040;-77
2022/02/22 03:47:15;;;;;;;1.35;0.70;;;;;;;19.03;23.98;96981.16;5079861;28;20047;-77
2022/02/22 03:49:41;;;;;;;2.67;0.82;;;;;;;19.50;23.38;96977.03;5072759;28;20060;-77
2022/02/22 03:52:08;;;;;;;2.88;0.80;;;;;;;19.93;23.13;96985.22;5083051;28;20029;-77
2022/02/22 03:54:34;;;;;;;1.75;0.80;;;;;;;19.70;23.68;96983.38;5074925;28;20758;-77
2022/02/22 03:57:00;;;;;;;1.95;0.65;;;;;;;18.51;25.15;96976.13;5070978;28;20394;-77
2022/02/22 03:59:26;;;;;;;1.77;0.50;;;;;;;19.23;24.77;97012.53;5068756;28;20029;-76
2022/02/22 04:01:54;;;;;;;4.22;0.80;;;;;;;20.23;23.32;97010.06;5071133;28;20085;-77
2022/02/22 04:04:20;;;;;;;4.13;0.65;;;;;;;20.07;23.14;97018.34;5071069;28;20093;-77
2022/02/22 04:06:46;;;;;;;1.27;0.70;;;;;;;19.33;23.75;97022.69;5072287;28;20043;-77
2022/02/22 04:09:12;;;;;;;1.60;0.90;;;;;;;19.01;24.11;97042.00;5053806;28;20082;-77
2022/02/22 04:11:38;;;;;;;1.83;0.90;;;;;;;18.13;25.84;97037.88;5070501;28;21153;-77
2022/02/22 04:14:04;;;;;;;3.22;0.85;;;;;;;18.61;25.01;97052.22;5058630;28;20039;-76
2022/02/22 04:16:30;;;;;;;1.15;1.05;;;;;;;19.43;24.46;97051.56;5075353;28;20075;-77
2022/02/22 04:18:56;;;;;;;0.80;0.60;;;;;;;18.30;24.73;97059.00;5080723;28;20105;-77
2022/02/22 04:21:22;;;;;;;1.65;0.88;;;;;;;18.72;24.64;97065.94;5075049;28;20061;-77
2022/02/22 04:23:48;;;;;;;1.75;0.70;;;;;;;18.50;24.56;97074.63;5055410;28;20060;-77
2022/02/22 04:26:14;;;;;;;1.67;0.80;;;;;;;18.74;24.71;97080.22;5070721;28;20040;-76
2022/02/22 04:28:40;;;;;;;1.20;0.85;;;;;;;18.54;24.34;97078.13;5072853;28;20041;-77
2022/02/22 04:31:07;;;;;;;0.93;0.70;;;;;;;18.70;24.26;97088.59;5075134;28;20074;-77
2022/02/22 04:33:33;;;;;;;1.67;0.63;;;;;;;18.68;24.36;97095.78;5071425;28;20025;-77
2022/02/22 04:35:59;;;;;;;1.48;0.70;;;;;;;19.45;23.36;97102.81;5050438;28;20482;-76
2022/02/22 04:38:25;;;;;;;0.88;0.73;;;;;;;18.52;24.12;97110.34;5071301;28;20040;-77
2022/02/22 04:40:51;;;;;;;1.58;0.90;;;;;;;19.57;23.76;97113.31;5069722;28;20036;-77
2022/02/22 04:43:17;;;;;;;3.70;1.05;;;;;;;20.79;22.29;97107.53;5070578;28;20048;-77
2022/02/22 04:45:43;;;;;;;1.45;0.93;;;;;;;19.78;23.89;97112.13;5072081;28;20082;-76
2022/02/22 04:48:09;;;;;;;3.88;1.10;;;;;;;18.98;25.25;97118.72;5071870;28;20492;-77
2022/02/22 04:50:35;;;;;;;2.20;1.20;;;;;;;19.32;24.64;97119.31;5071706;28;20504;-77
2022/02/22 04:53:03;;;;;;;1.50;0.80;;;;;;;20.10;23.48;97119.81;5076549;28;20029;-77
2022/02/22 04:55:29;;;;;;;2.17;0.90;;;;;;;20.50;22.77;97124.13;5072371;28;20474;-76
2022/02/22 04:57:55;;;;;;;4.53;1.02;;;;;;;20.09;23.27;97132.19;5072669;28;20481;-77
2022/02/22 05:00:22;;;;;;;0.88;0.85;;;;;;;19.37;24.12;97134.75;5069815;28;20040;-77
2022/02/22 05:02:48;;;;;;;0.80;0.65;;;;;;;18.49;25.50;97153.66;5072646;28;20040;-76
2022/02/22 05:05:14;;;;;;;0.90;0.90;;;;;;;19.51;24.20;97158.78;5076986;28;20151;-76
2022/02/22 05:07:40;;;;;;;1.65;1.00;;;;;;;18.65;25.18;97158.56;5070978;28;20035;-76
2022/02/22 05:10:06;;;;;;;0.95;0.95;;;;;;;18.61;25.34;97180.88;5076654;28;20055;-76
2022/02/22 05:12:33;;;;;;;1.48;1.00;;;;;;;18.90;24.51;97186.03;5074395;28;20036;-77
2022/02/22 05:14:59;;;;;;;1.10;0.90;;;;;;;18.75;24.71;97176.31;5070881;28;20029;-77
2022/02/22 05:17:25;;;;;;;1.88;1.40;;;;;;;18.13;25.62;97185.88;5048689;28;20047;-77
2022/02/22 05:19:51;;;;;;;2.47;1.20;;;;;;;17.65;26.22;97194.34;5069137;28;20063;-77
2022/02/22 05:22:17;;;;;;;1.63;1.30;;;;;;;18.44;25.51;97204.09;5069567;28;20028;-76
2022/02/22 05:24:43;;;;;;;1.20;0.63;;;;;;;17.60;25.68;97213.41;5068828;28;20059;-76
2022/02/22 05:27:09;;;;;;;1.05;0.77;;;;;;;17.53;26.18;97217.06;5050701;28;20036;-77
2022/02/22 05:29:35;;;;;;;2.40;1.20;;;;;;;17.38;26.04;97217.56;5073368;28;20402;-76
2022/02/22 05:32:01;;;;;;;1.58;0.93;;;;;;;17.29;26.35;97226.38;5064060;28;20115;-77
2022/02/22 05:34:28;;;;;;;4.22;1.20;;;;;;;17.89;25.36;97240.50;5062833;28;21296;-76
2022/02/22 05:36:54;;;;;;;2.55;1.15;;;;;;;18.08;25.37;97238.31;5068341;28;20044;-77
2022/02/22 05:39:20;;;;;;;2.65;0.93;;;;;;;17.94;25.35;97248.38;5064037;28;20052;-77
2022/02/22 05:41:46;;;;;;;0.98;0.70;;;;;;;18.41;24.46;97251.41;5068196;28;20036;-78
2022/02/22 05:44:12;;;;;;;3.42;0.85;;;;;;;18.02;24.85;97254.63;5066308;28;20052;-78
2022/02/22 05:46:38;;;;;;;3.15;1.02;;;;;;;16.95;25.62;97269.78;5071742;28;20520;-78
2022/02/22 05:49:05;;;;;;;3.38;0.82;;;;;;;17.67;24.65;97268.88;5086004;28;20044;-78
2022/02/22 05:51:31;;;;;;;3.40;1.00;;;;;;;17.77;24.83;97273.53;5067271;28;20466;-78
2022/02/22 05:53:57;;;;;;;2.15;1.00;;;;;;;19.25;22.84;97263.38;5076001;28;20036;-77
2022/02/22 05:56:23;;;;;;;2.10;0.85;;;;;;;18.76;23.43;97270.44;5083213;28;20089;-77
2022/02/22 05:58:49;;;;;;;0.90;0.60;;;;;;;18.86;23.42;97269.50;5073277;28;20028;-78
2022/02/22 06:01:15;;;;;;;2.47;0.75;;;;;;;18.67;23.71;97278.50;5083296;28;20385;-77
2022/02/22 06:03:41;;;;;;;2.10;1.10;;;;;;;20.17;21.55;97286.88;5082544;28;20107;-77
2022/02/22 06:06:07;;;;;;;2.63;0.85;;;;;;;19.84;21.87;97286.66;5054363;28;20123;-78
2022/02/22 06:08:33;;;;;;;1.25;0.82;;;;;;;20.89;20.62;97290.59;5071614;28;20089;-77
2022/02/22 06:10:59;;;;;;;4.35;1.17;;;;;;;18.69;22.95;97297.56;5073939;28;20024;-79
2022/02/22 06:13:25;;;;;;;2.70;1.10;;;;;;;18.89;23.19;97301.25;5071448;28;20555;-79
2022/02/22 06:15:51;;;;;;;1.65;1.08;;;;;;;19.43;22.63;97302.09;5069969;28;20031;-79
2022/02/22 06:18:18;;;;;;;1.60;1.02;;;;;;;18.46;23.75;97314.91;5072188;28;20032;-78
2022/02/22 06:20:44;;;;;;;3.53;1.38;;;;;;;19.32;22.66;97316.16;5075806;28;20060;-79
2022/02/22 06:23:11;;;;;;;3.13;1.23;;;;;;;19.57;22.37;97316.56;5070994;28;20405;-79
2022/02/22 06:25:37;;;;;;;2.08;1.88;;;;;;;18.35;23.48;97323.34;5068139;28;20066;-78
2022/02/22 06:28:03;;;;;;;4.32;1.15;;;;;;;18.53;23.65;97335.06;5068563;28;20111;-78
2022/02/22 06:30:30;;;;;;;4.07;1.10;;;;;;;18.94;22.77;97334.16;5068039;28;20029;-78
2022/02/22 06:32:56;;;;;;;3.67;1.33;;;;;;;19.58;22.27;97339.66;5073097;28;20119;-78
2022/02/22 06:35:22;;;;;;;3.63;1.10;;;;;;;19.34;22.21;97336.00;5086295;28;20030;-78
2022/02/22 06:37:49;;;;;;;2.67;1.17;;;;;;;20.71;20.89;97344.00;5097097;28;20036;-78
2022/02/22 06:40:16;;;;;;;3.25;0.90;;;;;;;20.06;21.50;97361.53;5069455;28;20041;-78
2022/02/22 06:42:42;;;;;;;4.32;1.20;;;;;;;19.93;21.69;97358.53;5058519;28;20574;-78
2022/02/22 06:45:09;;;;;;;2.08;0.70;;;;;;;19.37;22.23;97342.75;5074143;28;20041;-78
2022/02/22 06:47:40;;;;;;;2.75;0.93;;;;;;;18.39;23.69;97356.66;5076078;28;20117;-78
2022/02/22 06:50:09;;;;;;;2.05;0.95;;;;;;;17.98;24.14;97350.28;5075161;28;20039;-77
2022/02/22 06:52:35;;;;;;;3.28;0.93;;;;;;;18.98;22.49;97352.38;5079306;28;20040;-78
2022/02/22 06:55:01;;;;;;;2.92;1.20;;;;;;;19.63;22.06;97355.84;5076775;28;20028;-78
2022/02/22 06:57:27;;;;;;;3.05;1.17;;;;;;;19.70;22.04;97356.53;5075091;28;20155;-78
2022/02/22 06:59:53;;;;;;;3.33;0.80;;;;;;;18.97;22.62;97361.16;5075473;28;20561;-78
2022/02/22 07:02:19;;;;;;;3.45;1.00;;;;;;;19.59;21.95;97361.50;5074126;28;20486;-78
2022/02/22 07:04:45;;;;;;;7.10;1.23;;;;;;;19.50;21.96;97364.03;5076101;28;20036;-78
2022/02/22 07:07:12;;;;;;;4.18;1.23;;;;;;;19.47;21.89;97364.84;5075471;28;20041;-78
2022/02/22 07:09:38;;;;;;;4.57;0.95;;;;;;;19.43;22.13;97364.13;5072597;28;20111;-78
2022/02/22 07:12:04;;;;;;;2.83;0.65;;;;;;;19.27;22.42;97372.28;5072385;28;20460;-78
2022/02/22 07:14:30;;;;;;;2.25;0.60;;;;;;;19.29;22.39;97376.22;5076014;28;20459;-78
2022/02/22 07:16:57;;;;;;;4.50;0.77;;;;;;;19.02;22.61;97375.38;5068915;28;20020;-78
2022/02/22 07:19:23;;;;;;;8.43;1.00;;;;;;;19.37;22.37;97374.13;5093782;28;20035;-78
2022/02/22 07:21:49;;;;;;;1.65;0.63;;;;;;;19.16;22.36;97372.41;5081448;28;20038;-78
2022/02/22 07:24:15;;;;;;;3.60;0.90;;;;;;;19.06;22.38;97389.25;5076238;28;20025;-78
2022/02/22 07:26:41;;;;;;;2.20;0.90;;;;;;;20.50;20.99;97389.03;5073660;28;20094;-78
2022/02/22 07:29:07;;;;;;;3.17;0.70;;;;;;;20.73;20.58;97388.19;5077927;28;20059;-78
2022/02/22 07:31:33;;;;;;;2.55;0.80;;;;;;;21.80;19.63;97385.50;5081591;28;20485;-78
2022/02/22 07:33:59;;;;;;;4.88;0.75;;;;;;;20.90;20.28;97385.06;5073468;28;21981;-78
2022/02/22 07:36:26;;;;;;;3.55;1.10;;;;;;;20.53;20.70;97383.41;5078321;28;20493;-78
2022/02/22 07:38:53;;;;;;;2.35;0.60;;;;;;;18.70;23.05;97410.34;5075495;28;20478;-78
2022/02/22 07:41:22;;;;;;;4.55;1.00;;;;;;;20.11;21.79;97398.06;5066251;28;20496;-78
2022/02/22 07:43:50;;;;;;;2.08;0.70;;;;;;;19.41;22.41;97394.38;5094663;28;20405;-78
2022/02/22 07:46:20;;;;;;;1.88;0.80;;;;;;;20.67;20.62;97410.22;5083677;28;20039;-78
2022/02/22 07:48:47;;;;;;;3.08;0.82;;;;;;;20.79;20.68;97420.75;5075296;28;20040;-78
2022/02/22 07:51:18;;;;;;;3.35;0.75;;;;;;;19.28;21.88;97423.94;5060582;28;20028;-78
2022/02/22 07:53:45;;;;;;;2.88;0.80;;;;;;;18.81;22.82;97430.50;5095758;28;20024;-78
2022/02/22 07:56:11;;;;;;;1.30;0.50;;;;;;;19.20;22.46;97434.38;5084860;28;20033;-78
2022/02/22 07:58:38;;;;;;;3.30;0.65;;;;;;;18.92;23.01;97433.94;5055202;28;20036;-78
2022/02/22 08:01:05;;;;;;;2.70;0.80;;;;;;;20.35;21.14;97437.91;5089218;28;20037;-78
2022/02/22 08:03:33;;;;;;;2.50;0.52;;;;;;;20.11;20.95;97437.06;5075950;28;20371;-78
2022/02/22 08:05:59;;;;;;;2.45;0.73;;;;;;;19.25;22.43;97450.59;5076661;28;20032;-78
2022/02/22 08:08:25;;;;;;;2.38;0.77;;;;;;;18.94;22.74;97453.78;5073972;28;20032;-78
2022/02/22 08:10:51;;;;;;;3.65;0.95;;;;;;;19.75;21.90;97459.13;5088036;28;20036;-78
2022/02/22 08:13:18;;;;;;;2.40;0.73;;;;;;;18.39;23.45;97457.47;5091257;28;20033;-78
2022/02/22 08:15:44;;;;;;;2.10;0.70;;;;;;;18.07;24.09;97467.28;5071304;28;20032;-78
2022/02/22 08:18:10;;;;;;;6.10;1.00;;;;;;;18.82;23.68;97468.22;5075060;28;20083;-78
2022/02/22 08:20:36;;;;;;;3.00;0.88;;;;;;;19.21;23.05;97474.91;5073850;28;20111;-78
2022/02/22 08:23:03;;;;;;;3.05;0.90;;;;;;;18.83;23.12;97461.47;5081834;28;20085;-78
2022/02/22 08:25:29;;;;;;;5.15;1.40;;;;;;;20.39;21.86;97477.66;5083328;28;20028;-78
2022/02/22 08:27:55;;;;;;;2.53;0.95;;;;;;;19.17;22.99;97481.72;5076079;28;20388;-78
2022/02/22 08:30:21;;;;;;;4.60;1.15;;;;;;;18.28;24.35;97469.88;5079676;28;20031;-78
2022/02/22 08:32:48;;;;;;;3.78;0.70;;;;;;;18.40;24.56;97483.28;5074883;28;20043;-78
2022/02/22 08:35:14;;;;;;;1.40;0.70;;;;;;;19.97;22.66;97485.47;5073579;28;20493;-78
2022/02/22 08:37:40;;;;;;;5.97;2.08;;;;;;;19.84;22.51;97489.22;5056836;28;20024;-78
2022/02/22 08:40:07;;;;;;;9.38;3.22;;;;;;;19.49;22.90;97492.47;5073318;28;20029;-78
2022/02/22 08:42:33;;;;;;;4.13;0.82;;;;;;;18.23;24.25;97487.78;5094798;28;20016;-78
2022/02/22 08:44:59;;;;;;;3.15;1.15;;;;;;;19.08;23.10;97506.47;5087851;28;20085;-78
2022/02/22 08:47:25;;;;;;;3.38;1.30;;;;;;;20.96;22.03;97500.53;5082685;28;20044;-78
2022/02/22 08:49:51;;;;;;;2.95;0.98;;;;;;;19.90;22.27;97505.06;5077720;28;20103;-78
2022/02/22 08:52:17;;;;;;;1.90;1.33;;;;;;;18.41;24.02;97519.00;5086225;28;20029;-78
2022/02/22 08:54:43;;;;;;;2.45;0.93;;;;;;;19.28;22.88;97496.28;5075389;28;20077;-78
2022/02/22 08:57:10;;;;;;;2.33;1.02;;;;;;;19.47;23.25;97531.88;5062127;28;20123;-78
2022/02/22 08:59:36;;;;;;;2.00;0.88;;;;;;;19.90;22.27;97515.41;5074534;28;20478;-78
2022/02/22 09:02:02;;;;;;;2.20;0.70;;;;;;;20.19;22.11;97504.63;5076815;28;20547;-78
2022/02/22 09:04:29;;;;;;;2.58;1.02;;;;;;;21.07;21.19;97520.72;5071372;28;20039;-78
2022/02/22 09:06:55;;;;;;;2.38;0.80;;;;;;;19.77;22.80;97529.13;5060479;28;20172;-78
2022/02/22 09:09:21;;;;;;;2.00;0.82;;;;;;;20.17;22.60;97527.34;5075808;28;20032;-78
2022/02/22 09:11:47;;;;;;;2.75;0.70;;;;;;;19.40;23.50;97526.41;5070426;28;20086;-78
2022/02/22 09:14:13;;;;;;;3.08;1.13;;;;;;;19.64;23.54;97535.66;5054021;28;20041;-77
2022/02/22 09:16:39;;;;;;;2.88;0.90;;;;;;;20.58;22.30;97532.72;5070602;28;20028;-78
2022/02/22 09:19:05;;;;;;;0.88;0.60;;;;;;;20.30;22.79;97527.59;5073604;28;20131;-78
2022/02/22 09:21:31;;;;;;;4.30;1.17;;;;;;;18.73;24.59;97545.78;5073144;28;20028;-78
2022/02/22 09:23:57;;;;;;;3.00;1.00;;;;;;;19.57;23.76;97532.97;5072212;28;20032;-77
2022/02/22 09:26:24;;;;;;;2.75;0.88;;;;;;;20.67;22.32;97530.97;5071447;28;20040;-78
2022/02/22 09:28:51;;;;;;;2.80;1.08;;;;;;;21.94;20.70;97522.94;5054927;28;20036;-78
2022/02/22 09:31:18;;;;;;;3.20;0.93;;;;;;;21.04;21.36;97527.16;5068679;28;20029;-77
2022/02/22 09:33:44;;;;;;;2.70;0.90;;;;;;;21.19;21.12;97522.09;5069930;28;20028;-78
2022/02/22 09:36:10;;;;;;;2.25;0.82;;;;;;;20.30;22.22;97522.03;5073765;28;20029;-78
2022/02/22 09:38:36;;;;;;;2.97;1.15;;;;;;;20.19;22.63;97532.50;5070720;28;20139;-78
2022/02/22 09:41:03;;;;;;;3.10;1.40;;;;;;;19.35;24.34;97543.53;5072490;28;20542;-78
2022/02/22 09:43:29;;;;;;;4.72;1.30;;;;;;;19.73;23.51;97536.72;5070383;28;20433;-78
2022/02/22 09:45:57;;;;;;;3.08;1.63;;;;;;;19.90;23.48;97532.94;5067669;28;20028;-78
2022/02/22 09:48:23;;;;;;;3.75;1.27;;;;;;;20.26;23.15;97541.56;5069989;28;20028;-78
2022/02/22 09:50:49;;;;;;;2.63;1.00;;;;;;;18.81;25.40;97533.38;5070672;28;20103;-78
2022/02/22 09:53:15;;;;;;;2.58;1.20;;;;;;;20.06;24.00;97545.44;5071290;28;20387;-78
2022/02/22 09:55:42;;;;;;;3.05;1.08;;;;;;;21.23;22.27;97545.16;5068604;28;20047;-78
2022/02/22 09:58:08;;;;;;;3.25;1.10;;;;;;;21.89;21.33;97553.41;5070422;28;20543;-78
2022/02/22 10:00:35;;;;;;;2.88;0.90;;;;;;;20.14;23.20;97556.06;5070252;28;20016;-78
2022/02/22 10:03:02;;;;;;;3.60;1.15;;;;;;;21.09;22.61;97557.38;5071995;28;20119;-78
2022/02/22 10:05:29;;;;;;;6.35;1.38;;;;;;;22.04;21.75;97560.25;5070219;28;20082;-78
2022/02/22 10:07:57;;;;;;;5.20;1.35;;;;;;;20.82;22.06;97562.19;5073733;28;20115;-78
2022/02/22 10:10:43;;;;;;;2.70;1.25;;;;;;;20.89;21.82;97564.84;5071311;28;20478;-78
2022/02/22 10:13:19;;;;;;;4.25;1.40;;;;;;;20.55;22.45;97567.81;5071205;28;20051;-79
2022/02/22 10:15:45;;;;;;;3.20;1.30;;;;;;;20.60;22.03;97558.97;5066936;28;20098;-78
2022/02/22 10:18:12;;;;;;;2.47;1.23;;;;;;;20.88;21.92;97562.50;5070843;28;20078;-78
2022/02/22 10:20:38;;;;;;;3.05;1.25;;;;;;;22.89;19.59;97561.06;5053195;28;20063;-78
2022/02/22 10:23:06;;;;;;;2.42;1.30;;;;;;;23.43;18.81;97555.69;5070321;28;20089;-78
2022/02/22 10:25:34;;;;;;;2.92;1.40;;;;;;;22.55;19.50;97565.06;5072524;28;20024;-78
2022/02/22 10:28:04;;;;;;;4.80;1.40;;;;;;;22.80;19.28;97574.91;5071017;28;20036;-78
2022/02/22 10:30:40;;;;;;;2.97;1.10;;;;;;;21.48;21.11;97578.16;5070973;28;20033;-78
2022/02/22 10:33:24;;;;;;;3.45;1.45;;;;;;;22.21;19.95;97570.28;5070331;28;20036;-78
2022/02/22 10:35:58;;;;;;;2.88;1.42;;;;;;;22.64;19.47;97578.47;5068203;28;20120;-78
2022/02/22 10:38:27;;;;;;;7.88;2.80;;;;;;;21.82;20.46;97585.03;5067386;28;20028;-78
2022/02/22 10:40:58;;;;;;;4.85;2.10;;;;;;;22.27;20.00;97585.31;5050796;28;20040;-78
2022/02/22 10:43:29;;;;;;;7.03;2.97;;;;;;;20.62;21.91;97584.44;5067238;28;20147;-78
2022/02/22 10:45:59;;;;;;;7.82;2.78;;;;;;;21.31;20.98;97585.66;5073713;28;20033;-78
2022/02/22 10:48:32;;;;;;;5.65;1.60;;;;;;;21.47;20.47;97584.97;5070256;28;20025;-78
2022/02/22 10:51:00;;;;;;;3.13;1.30;;;;;;;20.94;21.31;97588.69;5071105;28;20036;-78
2022/02/22 10:53:35;;;;;;;3.67;1.42;;;;;;;20.90;21.17;97585.19;5071558;28;20032;-78
2022/02/22 10:56:05;;;;;;;3.15;1.42;;;;;;;20.38;22.08;97601.53;5071130;28;20032;-78
2022/02/22 10:58:32;;;;;;;3.03;1.40;;;;;;;20.58;21.67;97603.22;5068105;28;20764;-79
2022/02/22 11:00:58;;;;;;;2.42;1.02;;;;;;;20.83;21.23;97594.47;5069368;28;20028;-78
2022/02/22 11:03:25;;;;;;;3.00;1.20;;;;;;;19.66;22.65;97598.09;5070348;28;20021;-78
2022/02/22 11:05:51;;;;;;;2.67;1.33;;;;;;;20.75;21.50;97597.81;5073514;28;20029;-78
2022/02/22 11:08:31;;;;;;;5.25;1.38;;;;;;;21.46;20.57;97589.78;5069411;28;20032;-78
2022/02/22 11:11:06;;;;;;;2.65;1.48;;;;;;;20.73;21.12;97586.25;5069183;28;20024;-78
2022/02/22 11:13:33;;;;;;;2.47;1.33;;;;;;;19.54;22.65;97597.84;5072062;28;20044;-78
2022/02/22 11:16:11;;;;;;;2.80;1.20;;;;;;;21.02;21.02;97602.13;5081759;28;20107;-78
2022/02/22 11:18:50;;;;;;;2.60;1.30;;;;;;;21.52;20.70;97604.81;5067588;28;20028;-78
2022/02/22 11:21:19;;;;;;;3.33;1.33;;;;;;;19.59;22.14;97606.53;5073740;28;20492;-78
2022/02/22 11:23:46;;;;;;;2.33;1.10;;;;;;;18.76;23.46;97608.91;5073793;28;20040;-78
2022/02/22 11:26:19;;;;;;;2.55;1.13;;;;;;;19.21;23.16;97594.56;5075195;28;20417;-78
2022/02/22 11:28:51;;;;;;;2.85;1.33;;;;;;;19.66;22.76;97606.44;5075502;28;20094;-78
2022/02/22 11:31:29;;;;;;;4.30;1.60;;;;;;;19.57;23.12;97597.00;5069327;28;20506;-76
2022/02/22 11:34:02;;;;;;;4.38;1.40;;;;;;;19.62;23.55;97614.06;5081110;28;20562;-76